createdAt,value
2019-05-28T00:00:46.190Z,35.27
2019-05-28T00:03:15.010Z,27.73
2019-05-28T00:05:43.589Z,17.97
2019-05-28T00:08:12.140Z,63.93
2019-05-28T00:10:40.718Z,39.60
2019-05-28T00:13:09.360Z,48.27
2019-05-28T00:15:37.995Z,29.20
2019-05-28T00:18:06.579Z,38.97
2019-05-28T00:20:35.167Z,33.70
2019-05-28T00:23:03.707Z,33.77
2019-05-28T00:25:32.295Z,68.27
2019-05-28T00:28:00.850Z,27.53
2019-05-28T00:30:29.462Z,26.27
2019-05-28T00:32:58.075Z,57.77
2019-05-28T00:35:26.653Z,58.20
2019-05-28T00:37:55.198Z,22.57
2019-05-28T00:40:23.777Z,18.90
2019-05-28T00:42:52.320Z,23.40
2019-05-28T00:45:21.232Z,33.37
2019-05-28T00:47:49.961Z,19.37
2019-05-28T00:50:19.039Z,57.80
2019-05-28T00:52:47.793Z,60.43
2019-05-28T00:55:17.972Z,30.10
2019-05-28T00:57:49.371Z,26.33
2019-05-28T01:00:36.111Z,16.67
2019-05-28T01:02:50.065Z,44.33
2019-05-28T01:05:18.697Z,21.90
2019-05-28T01:07:47.300Z,49.20
2019-05-28T01:10:16.000Z,52.17
2019-05-28T01:12:44.586Z,43.77
2019-05-28T01:15:13.268Z,26.77
2019-05-28T01:17:41.853Z,25.00
2019-05-28T01:20:10.734Z,20.37
2019-05-28T01:22:39.387Z,26.90
2019-05-28T01:25:08.575Z,51.50
2019-05-28T01:27:37.162Z,78.27
2019-05-28T01:30:06.552Z,146.77
2019-05-28T01:32:35.205Z,49.43
2019-05-28T01:35:05.379Z,23.40
2019-05-28T01:37:33.941Z,41.67
2019-05-28T01:40:03.265Z,105.63
2019-05-28T01:42:31.835Z,13.80
2019-05-28T01:45:00.381Z,15.80
2019-05-28T01:47:28.968Z,61.67
2019-05-28T01:49:57.512Z,37.63
2019-05-28T01:52:26.088Z,14.70
2019-05-28T01:54:54.671Z,30.70
2019-05-28T01:57:23.266Z,14.07
2019-05-28T01:59:51.835Z,12.63
2019-05-28T02:02:20.731Z,12.70
2019-05-28T02:04:49.315Z,14.20
2019-05-28T02:07:17.874Z,20.73
2019-05-28T02:09:46.442Z,11.63
2019-05-28T02:12:15.001Z,13.20
2019-05-28T02:14:43.543Z,12.77
2019-05-28T02:17:12.453Z,14.50
2019-05-28T02:19:40.972Z,29.67
2019-05-28T02:22:09.556Z,18.60
2019-05-28T02:24:38.116Z,18.50
2019-05-28T02:27:06.770Z,13.93
2019-05-28T02:29:35.313Z,13.80
2019-05-28T02:32:03.941Z,26.13
2019-05-28T02:34:32.607Z,15.87
2019-05-28T02:37:01.223Z,19.30
2019-05-28T02:39:29.805Z,13.50
2019-05-28T02:41:58.352Z,16.47
2019-05-28T02:44:27.004Z,16.23
2019-05-28T02:46:55.535Z,14.70
2019-05-28T02:49:24.128Z,17.07
2019-05-28T02:51:53.332Z,18.60
2019-05-28T02:54:22.470Z,43.63
2019-05-28T02:56:52.678Z,25.43
2019-05-28T02:59:22.905Z,21.03
2019-05-28T03:01:54.548Z,26.13
2019-05-28T03:04:24.787Z,22.50
2019-05-28T03:06:55.792Z,25.13
2019-05-28T03:09:26.326Z,24.33
2019-05-28T03:11:54.856Z,35.97
2019-05-28T03:14:23.434Z,25.20
2019-05-28T03:16:55.095Z,43.00
2019-05-28T03:19:25.874Z,23.13
2019-05-28T03:21:56.939Z,26.07
2019-05-28T03:24:27.953Z,23.67
2019-05-28T03:26:56.528Z,24.47
2019-05-28T03:29:25.196Z,25.27
2019-05-28T03:32:07.325Z,25.70
2019-05-28T03:34:24.447Z,30.63
2019-05-28T03:36:54.039Z,30.43
2019-05-28T03:39:23.549Z,30.50
2019-05-28T03:41:52.987Z,35.20
2019-05-28T03:44:21.675Z,37.20
2019-05-28T03:46:50.217Z,35.10
2019-05-28T03:49:18.796Z,27.43
2019-05-28T03:51:47.699Z,24.23
2019-05-28T03:54:16.259Z,33.83
2019-05-28T03:56:44.819Z,30.33
2019-05-28T03:59:13.408Z,30.70
2019-05-28T04:01:42.229Z,28.50
2019-05-28T04:04:10.825Z,28.17
2019-05-28T04:06:39.380Z,29.43
2019-05-28T04:09:08.973Z,28.17
2019-05-28T04:11:44.777Z,30.23
2019-05-28T04:14:07.891Z,32.87
2019-05-28T04:16:36.435Z,30.60
2019-05-28T04:19:05.621Z,35.77
2019-05-28T04:21:34.122Z,31.77
2019-05-28T04:24:02.699Z,30.83
2019-05-28T04:26:31.247Z,27.57
2019-05-28T04:28:59.790Z,28.40
2019-05-28T04:31:28.437Z,32.13
2019-05-28T04:33:58.371Z,27.33
2019-05-28T04:36:27.216Z,27.77
2019-05-28T04:38:55.806Z,30.20
2019-05-28T04:41:24.413Z,39.13
2019-05-28T04:43:52.972Z,26.47
2019-05-28T04:46:21.549Z,27.20
2019-05-28T04:48:50.102Z,26.03
2019-05-28T04:51:18.735Z,30.40
2019-05-28T04:53:47.253Z,29.43
2019-05-28T04:56:15.832Z,29.50
2019-05-28T04:58:44.387Z,36.00
2019-05-28T05:01:12.974Z,34.77
2019-05-28T05:03:41.550Z,31.80
2019-05-28T05:06:10.142Z,36.43
2019-05-28T05:08:38.707Z,39.53
2019-05-28T05:11:07.270Z,32.33
2019-05-28T05:13:36.089Z,35.40
2019-05-28T05:16:04.732Z,30.40
2019-05-28T05:18:33.291Z,26.63
2019-05-28T05:21:01.899Z,26.20
2019-05-28T05:23:30.443Z,26.20
2019-05-28T05:25:59.043Z,24.47
2019-05-28T05:28:27.579Z,27.30
2019-05-28T05:30:56.167Z,24.53
2019-05-28T05:33:24.743Z,25.40
2019-05-28T05:35:53.631Z,23.40
2019-05-28T05:38:22.207Z,22.73
2019-05-28T05:40:50.802Z,22.30
2019-05-28T05:43:19.402Z,25.90
2019-05-28T05:45:47.918Z,22.87
2019-05-28T05:48:18.044Z,25.77
2019-05-28T05:50:47.142Z,29.67
2019-05-28T05:53:15.678Z,28.30
2019-05-28T05:55:44.222Z,26.53
2019-05-28T05:58:12.806Z,30.10
2019-05-28T06:00:41.359Z,30.73
2019-05-28T06:03:09.952Z,29.47
2019-05-28T06:05:38.427Z,30.57
2019-05-28T06:08:07.064Z,29.37
2019-05-28T06:10:35.558Z,31.47
2019-05-28T06:13:04.217Z,29.33
2019-05-28T06:15:32.751Z,28.10
2019-05-28T06:18:01.335Z,27.50
2019-05-28T06:20:30.036Z,29.73
2019-05-28T06:22:58.612Z,24.23
2019-05-28T06:25:27.165Z,26.80
2019-05-28T06:27:55.745Z,27.03
2019-05-28T06:30:24.426Z,28.43
2019-05-28T06:32:53.008Z,26.53
2019-05-28T06:35:21.692Z,27.83
2019-05-28T06:37:50.280Z,27.77
2019-05-28T06:40:19.350Z,33.83
2019-05-28T06:42:47.954Z,28.90
2019-05-28T06:45:17.081Z,26.60
2019-05-28T06:47:45.847Z,30.07
2019-05-28T06:50:16.206Z,29.70
2019-05-28T06:52:44.796Z,27.97
2019-05-28T06:55:13.483Z,27.67
2019-05-28T06:57:42.098Z,26.03
2019-05-28T07:00:11.219Z,26.57
2019-05-28T07:02:39.835Z,27.00
2019-05-28T07:05:08.764Z,28.80
2019-05-28T07:07:37.380Z,32.70
2019-05-28T07:10:07.685Z,32.93
2019-05-28T07:12:36.303Z,28.23
2019-05-28T07:15:07.209Z,22.50
2019-05-28T07:17:35.966Z,18.33
2019-05-28T07:20:06.910Z,28.50
2019-05-28T07:22:35.459Z,22.57
2019-05-28T07:25:06.234Z,21.40
2019-05-28T07:27:34.774Z,24.40
2019-05-28T07:30:05.210Z,22.70
2019-05-28T07:32:33.833Z,17.80
2019-05-28T07:35:02.820Z,19.60
2019-05-28T07:37:31.337Z,21.77
2019-05-28T07:39:59.942Z,16.90
2019-05-28T07:42:32.784Z,15.50
2019-05-28T07:44:58.734Z,20.43
2019-05-28T07:47:27.284Z,19.00
2019-05-28T07:49:55.924Z,20.47
2019-05-28T07:52:24.476Z,19.53
2019-05-28T07:54:53.051Z,16.60
2019-05-28T07:57:21.611Z,24.80
2019-05-28T07:59:50.187Z,18.30
2019-05-28T08:02:18.743Z,19.27
2019-05-28T08:04:47.958Z,21.40
2019-05-28T08:07:16.673Z,16.27
2019-05-28T08:09:45.257Z,18.47
2019-05-28T08:12:14.071Z,24.53
2019-05-28T08:14:42.766Z,19.07
2019-05-28T08:17:11.419Z,16.30
2019-05-28T08:19:39.976Z,17.03
2019-05-28T08:22:08.551Z,22.03
2019-05-28T08:24:37.095Z,16.97
2019-05-28T08:27:05.684Z,19.67
2019-05-28T08:29:34.232Z,18.90
2019-05-28T08:32:02.798Z,17.23
2019-05-28T08:34:31.455Z,20.47
2019-05-28T08:37:05.869Z,14.83
2019-05-28T08:39:33.383Z,27.30
2019-05-28T08:42:00.585Z,26.77
2019-05-28T08:44:29.272Z,20.80
2019-05-28T08:46:57.863Z,38.00
2019-05-28T08:49:26.475Z,118.67
2019-05-28T08:51:55.062Z,22.80
2019-05-28T08:54:23.604Z,22.13
2019-05-28T08:56:52.189Z,17.83
2019-05-28T08:59:20.767Z,16.60
2019-05-28T09:01:49.358Z,19.23
2019-05-28T09:04:17.893Z,14.30
2019-05-28T09:06:46.491Z,24.40
2019-05-28T09:09:15.139Z,16.70
2019-05-28T09:11:44.053Z,17.13
2019-05-28T09:14:12.585Z,15.70
2019-05-28T09:16:41.170Z,17.30
2019-05-28T09:19:10.519Z,13.37
2019-05-28T09:21:39.231Z,16.73
2019-05-28T09:24:07.814Z,16.13
2019-05-28T09:26:36.432Z,12.67
2019-05-28T09:29:05.544Z,14.17
2019-05-28T09:31:34.092Z,15.60
2019-05-28T09:34:02.664Z,14.37
2019-05-28T09:36:31.221Z,15.83
2019-05-28T09:38:59.796Z,11.90
2019-05-28T09:41:28.380Z,14.13
2019-05-28T09:43:57.453Z,14.30
2019-05-28T09:46:26.140Z,14.27
2019-05-28T09:48:54.719Z,14.40
2019-05-28T09:51:23.334Z,10.10
2019-05-28T09:53:51.906Z,10.30
2019-05-28T09:56:20.447Z,10.07
2019-05-28T09:58:49.095Z,13.57
2019-05-28T10:01:18.233Z,13.83
2019-05-28T10:03:46.832Z,13.20
2019-05-28T10:06:17.439Z,10.97
2019-05-28T10:08:45.747Z,15.10
2019-05-28T10:11:14.302Z,12.77
2019-05-28T10:13:42.946Z,12.13
2019-05-28T10:16:11.628Z,10.57
2019-05-28T10:18:40.147Z,10.93
2019-05-28T10:21:18.314Z,14.20
2019-05-28T10:23:39.080Z,11.30
2019-05-28T10:26:07.622Z,10.90
2019-05-28T10:28:36.176Z,11.33
2019-05-28T10:31:04.879Z,16.10
2019-05-28T10:33:33.488Z,10.60
2019-05-28T10:36:02.093Z,13.43
2019-05-28T10:38:30.663Z,11.40
2019-05-28T10:40:59.219Z,15.93
2019-05-28T10:43:27.788Z,14.40
2019-05-28T10:45:56.394Z,13.57
2019-05-28T10:48:24.919Z,13.73
2019-05-28T10:50:53.502Z,20.37
2019-05-28T10:53:22.035Z,12.90
2019-05-28T10:55:50.611Z,12.50
2019-05-28T10:58:19.170Z,13.27
2019-05-28T11:00:47.743Z,10.97
2019-05-28T11:03:16.309Z,15.13
2019-05-28T11:05:44.878Z,13.87
2019-05-28T11:08:13.462Z,13.50
2019-05-28T11:10:42.014Z,12.43
2019-05-28T11:13:10.551Z,10.07
2019-05-28T11:15:39.291Z,10.70
2019-05-28T11:18:07.925Z,8.23
2019-05-28T11:20:36.612Z,8.10
2019-05-28T11:23:05.233Z,13.83
2019-05-28T11:25:33.869Z,15.03
2019-05-28T11:28:02.410Z,9.40
2019-05-28T11:30:30.996Z,9.53
2019-05-28T11:32:59.579Z,8.07
2019-05-28T11:35:28.307Z,12.83
2019-05-28T11:37:56.829Z,9.30
2019-05-28T11:40:25.480Z,10.23
2019-05-28T11:42:54.031Z,8.37
2019-05-28T11:45:23.043Z,12.23
2019-05-28T11:47:51.657Z,12.57
2019-05-28T11:50:20.607Z,11.43
2019-05-28T11:52:49.159Z,11.57
2019-05-28T11:55:18.595Z,8.77
2019-05-28T11:57:47.199Z,11.17
2019-05-28T12:00:17.842Z,9.20
2019-05-28T12:02:46.678Z,8.63
2019-05-28T12:05:15.974Z,12.80
2019-05-28T12:07:44.552Z,10.47
2019-05-28T12:10:13.735Z,8.57
2019-05-28T12:12:42.306Z,8.80
2019-05-28T12:15:13.431Z,9.63
2019-05-28T12:17:45.018Z,10.63
2019-05-28T12:20:14.318Z,9.30
2019-05-28T12:22:43.070Z,8.03
2019-05-28T12:25:12.829Z,13.90
2019-05-28T12:27:41.471Z,8.50
2019-05-28T12:30:11.665Z,10.00
2019-05-28T12:32:40.297Z,8.13
2019-05-28T12:35:26.519Z,8.73
2019-05-28T12:37:48.038Z,13.00
2019-05-28T12:40:12.014Z,8.53
2019-05-28T12:42:40.706Z,12.70
2019-05-28T12:45:14.265Z,7.97
2019-05-28T12:47:42.827Z,11.50
2019-05-28T12:50:19.701Z,6.80
2019-05-28T12:52:46.519Z,7.60
2019-05-28T12:55:13.348Z,10.13
2019-05-28T12:57:41.919Z,8.70
2019-05-28T13:00:12.329Z,8.57
2019-05-28T13:02:40.898Z,8.67
2019-05-28T13:05:18.171Z,6.20
2019-05-28T13:08:03.601Z,7.93
2019-05-28T13:10:18.259Z,10.53
2019-05-28T13:12:46.829Z,8.40
2019-05-28T13:15:17.315Z,11.60
2019-05-28T13:17:45.984Z,12.67
2019-05-28T13:20:17.656Z,11.53
2019-05-28T13:22:46.640Z,17.70
2019-05-28T13:25:15.516Z,17.60
2019-05-28T13:27:44.424Z,9.60
2019-05-28T13:30:14.507Z,8.50
2019-05-28T13:32:43.460Z,4.77
2019-05-28T13:35:13.186Z,5.70
2019-05-28T13:37:41.765Z,10.53
2019-05-28T13:40:11.687Z,7.17
2019-05-28T13:42:40.298Z,7.70
2019-05-28T13:45:09.670Z,8.20
2019-05-28T13:47:38.262Z,14.87
2019-05-28T13:50:08.771Z,10.63
2019-05-28T13:52:37.298Z,13.00
2019-05-28T13:55:10.964Z,10.80
2019-05-28T13:57:39.951Z,11.90
2019-05-28T14:00:11.425Z,11.07
2019-05-28T14:02:45.503Z,8.30
2019-05-28T14:05:11.317Z,10.43
2019-05-28T14:07:39.894Z,9.60
2019-05-28T14:10:09.378Z,10.17
2019-05-28T14:12:38.083Z,8.97
2019-05-28T14:15:07.623Z,12.57
2019-05-28T14:17:36.201Z,7.97
2019-05-28T14:20:07.001Z,6.20
2019-05-28T14:22:35.850Z,10.33
2019-05-28T14:25:05.600Z,10.33
2019-05-28T14:27:34.342Z,6.80
2019-05-28T14:30:02.987Z,7.57
2019-05-28T14:32:31.536Z,7.90
2019-05-28T14:35:00.231Z,10.33
2019-05-28T14:37:28.763Z,10.40
2019-05-28T14:39:57.350Z,2.73
2019-05-28T14:42:25.903Z,2.90
2019-05-28T14:44:54.461Z,8.23
2019-05-28T14:47:23.011Z,2.77
2019-05-28T14:49:51.584Z,6.80
2019-05-28T14:52:20.120Z,4.40
2019-05-28T14:54:48.686Z,2.30
2019-05-28T14:57:17.221Z,3.80
2019-05-28T14:59:45.806Z,9.07
2019-05-28T15:02:14.411Z,5.27
2019-05-28T15:04:43.083Z,3.30
2019-05-28T15:07:11.649Z,7.83
2019-05-28T15:09:40.262Z,4.23
2019-05-28T15:12:08.786Z,6.07
2019-05-28T15:14:37.329Z,4.30
2019-05-28T15:17:05.901Z,3.47
2019-05-28T15:19:34.376Z,3.23
2019-05-28T15:22:02.967Z,4.93
2019-05-28T15:24:35.770Z,5.73
2019-05-28T15:27:01.944Z,3.97
2019-05-28T15:29:30.451Z,5.10
2019-05-28T15:31:59.027Z,3.10
2019-05-28T15:34:27.571Z,2.00
2019-05-28T15:36:56.147Z,4.43
2019-05-28T15:39:39.172Z,2.30
2019-05-28T15:41:54.906Z,3.00
2019-05-28T15:44:23.449Z,4.87
2019-05-28T15:46:52.074Z,1.47
2019-05-28T15:49:20.696Z,5.57
2019-05-28T15:51:49.417Z,5.13
2019-05-28T15:54:17.947Z,1.77
2019-05-28T15:56:46.546Z,4.10
2019-05-28T15:59:15.089Z,2.13
2019-05-28T16:01:43.659Z,1.30
2019-05-28T16:04:12.215Z,2.00
2019-05-28T16:06:40.775Z,2.40
2019-05-28T16:09:12.783Z,2.70
2019-05-28T16:11:39.644Z,1.77
2019-05-28T16:14:08.536Z,2.00
2019-05-28T16:16:37.075Z,1.30
2019-05-28T16:19:05.724Z,1.30
2019-05-28T16:21:34.515Z,1.30
2019-05-28T16:24:03.144Z,0.90
2019-05-28T16:26:31.672Z,2.33
2019-05-28T16:29:00.308Z,2.23
2019-05-28T16:31:28.888Z,4.23
2019-05-28T16:33:57.797Z,2.93
2019-05-28T16:36:26.347Z,1.53
2019-05-28T16:38:54.935Z,2.63
2019-05-28T16:41:23.467Z,3.10
2019-05-28T16:43:52.104Z,2.13
2019-05-28T16:46:20.667Z,3.87
2019-05-28T16:48:49.227Z,2.13
2019-05-28T16:51:17.769Z,2.33
2019-05-28T16:53:47.734Z,1.67
2019-05-28T16:56:16.316Z,2.70
2019-05-28T16:58:44.870Z,2.80
2019-05-28T17:01:22.228Z,3.37
2019-05-28T17:03:43.947Z,2.43
2019-05-28T17:06:12.487Z,2.73
2019-05-28T17:08:41.069Z,4.70
2019-05-28T17:11:09.626Z,3.10
2019-05-28T17:13:38.167Z,2.77
2019-05-28T17:16:06.785Z,6.47
2019-05-28T17:18:35.636Z,5.10
2019-05-28T17:21:04.712Z,2.53
2019-05-28T17:23:33.638Z,3.63
2019-05-28T17:26:02.191Z,5.37
2019-05-28T17:28:30.736Z,4.43
2019-05-28T17:30:59.301Z,2.83
2019-05-28T17:33:27.851Z,2.97
2019-05-28T17:35:57.503Z,3.30
2019-05-28T17:38:26.379Z,4.57
2019-05-28T17:40:54.947Z,3.27
2019-05-28T17:43:23.487Z,2.87
2019-05-28T17:45:52.428Z,2.43
2019-05-28T17:48:20.948Z,3.30
2019-05-28T17:50:52.537Z,2.20
2019-05-28T17:53:19.734Z,3.67
2019-05-28T17:55:48.289Z,6.50
2019-05-28T17:58:16.847Z,2.40
2019-05-28T18:00:45.391Z,9.23
2019-05-28T18:03:14.071Z,4.73
2019-05-28T18:05:42.622Z,4.90
2019-05-28T18:08:11.170Z,6.10
2019-05-28T18:10:39.732Z,5.13
2019-05-28T18:13:08.275Z,5.60
2019-05-28T18:15:36.838Z,2.40
2019-05-28T18:18:05.459Z,3.10
2019-05-28T18:20:34.022Z,5.00
2019-05-28T18:23:02.561Z,4.00
2019-05-28T18:25:31.130Z,3.60
2019-05-28T18:27:59.591Z,3.90
2019-05-28T18:30:28.175Z,2.93
2019-05-28T18:32:56.731Z,4.37
2019-05-28T18:35:25.371Z,3.87
2019-05-28T18:38:03.269Z,3.30
2019-05-28T18:40:24.248Z,2.83
2019-05-28T18:42:52.835Z,3.93
2019-05-28T18:45:21.515Z,3.97
2019-05-28T18:47:50.077Z,5.70
2019-05-28T18:50:18.683Z,2.73
2019-05-28T18:52:47.255Z,4.00
2019-05-28T18:55:16.424Z,5.87
2019-05-28T18:57:50.722Z,3.80
2019-05-28T19:00:15.606Z,3.43
2019-05-28T19:02:44.180Z,3.10
2019-05-28T19:05:13.445Z,2.90
2019-05-28T19:07:42.323Z,3.93
2019-05-28T19:10:11.100Z,4.73
2019-05-28T19:12:39.621Z,4.50
2019-05-28T19:15:08.994Z,3.63
2019-05-28T19:17:37.641Z,5.70
2019-05-28T19:20:08.326Z,3.50
2019-05-28T19:22:36.893Z,5.27
2019-05-28T19:25:10.527Z,5.10
2019-05-28T19:27:39.243Z,4.70
2019-05-28T19:30:09.628Z,6.40
2019-05-28T19:32:38.268Z,4.43
2019-05-28T19:35:08.043Z,3.57
2019-05-28T19:37:36.879Z,4.10
2019-05-28T19:40:09.463Z,8.60
2019-05-28T19:42:38.031Z,4.47
2019-05-28T19:45:07.632Z,3.80
2019-05-28T19:47:36.188Z,6.43
2019-05-28T19:50:06.505Z,4.30
2019-05-28T19:52:35.080Z,3.17
2019-05-28T19:55:04.616Z,5.37
2019-05-28T19:57:33.152Z,5.40
2019-05-28T20:00:03.487Z,5.70
2019-05-28T20:02:32.051Z,3.53
2019-05-28T20:05:00.660Z,5.80
2019-05-28T20:07:29.223Z,7.67
2019-05-28T20:09:57.771Z,4.77
2019-05-28T20:12:26.323Z,3.67
2019-05-28T20:14:54.898Z,3.10
2019-05-28T20:17:23.478Z,3.20
2019-05-28T20:19:52.976Z,5.27
2019-05-28T20:22:22.222Z,4.07
2019-05-28T20:24:52.851Z,5.67
2019-05-28T20:27:21.524Z,6.87
2019-05-28T20:29:50.093Z,7.47
2019-05-28T20:32:18.659Z,3.60
2019-05-28T20:34:47.226Z,3.50
2019-05-28T20:37:15.765Z,5.50
2019-05-28T20:39:44.353Z,4.60
2019-05-28T20:42:26.238Z,10.03
2019-05-28T20:44:43.113Z,5.63
2019-05-28T20:47:11.650Z,3.77
2019-05-28T20:49:40.224Z,4.77
2019-05-28T20:52:09.160Z,6.00
2019-05-28T20:54:37.827Z,7.40
2019-05-28T20:57:06.370Z,4.50
2019-05-28T20:59:34.944Z,7.33
2019-05-28T21:02:03.781Z,7.20
2019-05-28T21:04:32.337Z,6.57
2019-05-28T21:07:00.823Z,7.63
2019-05-28T21:09:29.386Z,6.87
2019-05-28T21:11:58.698Z,4.67
2019-05-28T21:14:27.301Z,6.17
2019-05-28T21:16:57.241Z,5.30
2019-05-28T21:19:25.857Z,5.80
2019-05-28T21:21:55.655Z,8.27
2019-05-28T21:24:24.400Z,4.00
2019-05-28T21:26:54.275Z,5.30
2019-05-28T21:29:22.917Z,4.70
2019-05-28T21:31:52.447Z,8.07
2019-05-28T21:34:21.041Z,6.20
2019-05-28T21:36:50.793Z,4.83
2019-05-28T21:39:19.565Z,7.50
2019-05-28T21:41:48.123Z,7.30
2019-05-28T21:44:16.694Z,6.40
2019-05-28T21:46:45.325Z,5.50
2019-05-28T21:49:13.795Z,5.53
2019-05-28T21:51:42.407Z,5.00
2019-05-28T21:54:10.948Z,6.10
2019-05-28T21:56:39.506Z,5.50
2019-05-28T21:59:08.078Z,4.87
2019-05-28T22:01:37.966Z,4.80
2019-05-28T22:04:07.793Z,6.80
2019-05-28T22:06:36.519Z,4.33
2019-05-28T22:09:08.166Z,4.80
2019-05-28T22:11:36.971Z,4.70
2019-05-28T22:14:05.656Z,4.03
2019-05-28T22:16:34.292Z,5.07
2019-05-28T22:19:02.836Z,4.23
2019-05-28T22:21:31.402Z,4.93
2019-05-28T22:24:00.626Z,3.93
2019-05-28T22:26:29.218Z,4.10
2019-05-28T22:28:57.836Z,7.13
2019-05-28T22:31:26.721Z,3.67
2019-05-28T22:33:55.261Z,5.70
2019-05-28T22:36:23.835Z,4.83
2019-05-28T22:39:09.020Z,3.90
2019-05-28T22:41:39.139Z,4.33
2019-05-28T22:44:08.142Z,7.37
2019-05-28T22:46:36.686Z,4.17
2019-05-28T22:49:07.405Z,6.67
2019-05-28T22:51:36.102Z,5.27
2019-05-28T22:54:06.066Z,5.07
2019-05-28T22:56:34.856Z,4.33
2019-05-28T22:59:04.494Z,4.50
2019-05-28T23:01:33.143Z,5.30
2019-05-28T23:04:02.949Z,5.03
2019-05-28T23:06:31.747Z,4.07
2019-05-28T23:09:01.329Z,4.43
2019-05-28T23:11:29.966Z,5.60
2019-05-28T23:13:58.534Z,4.80
2019-05-28T23:16:27.085Z,4.70
2019-05-28T23:18:55.651Z,4.10
2019-05-28T23:21:24.198Z,4.30
2019-05-28T23:23:53.035Z,3.83
2019-05-28T23:26:21.581Z,4.57
2019-05-28T23:28:50.146Z,4.20
2019-05-28T23:31:18.707Z,4.43
2019-05-28T23:33:47.284Z,6.00
2019-05-28T23:36:15.819Z,4.70
2019-05-28T23:38:44.310Z,5.47
2019-05-28T23:41:13.501Z,4.47
2019-05-28T23:43:42.218Z,5.00
2019-05-28T23:46:12.079Z,5.27
2019-05-28T23:48:40.658Z,7.47
2019-05-28T23:51:10.443Z,7.70
2019-05-28T23:53:39.284Z,5.40
2019-05-28T23:56:08.174Z,4.20
2019-05-28T23:58:36.735Z,7.10
